Terminal Aerodrome Forecast
Issued by NWS Sterling, VA

Current Version | Previous Version | Graphics & Text | Print | Product List | Glossary On
Versions: 1 2 3 4 5 6 7 8 9 10 11 12 13 14 15 16 17 18 19 20 21 22 23 24 25 26 27
000
FTUS41 KLWX 261449 AAA
TAFIAD
TAF AMD
KIAD 261449Z 2615/2718 25011KT P6SM OVC150
     FM261800 25013G20KT P6SM VCTS SCT050CB BKN250
     FM262000 26014G22KT P6SM -TSRA BKN050CB BKN090
     FM262200 32010KT P6SM -SHRA VCTS SCT050CB BKN070
     FM270000 28008KT P6SM BKN070
     FM270500 36008KT P6SM BKN040
     FM271000 02008KT P6SM OVC030
     FM271700 06004KT P6SM BKN030=

USA.gov is the U.S. government's official web portal to all federal, state and local government web resources and services.